Time,TemperatureF,DewpointF,PressureIn,WindDirection,WindDirectionDegrees,WindSpeedMPH,WindSpeedGustMPH,Humidity,HourlyPrecipIn,Conditions,Clouds,dailyrainin,SoftwareType,DateUTC
2013-02-13 00:02:00,19.0,7.0,-100.00,WNW,301,34.0,39.0,60,0.00,,,-99.99,,2013-02-13 07:02:00,
2013-02-13 00:11:00,18.0,7.0,-100.00,WNW,298,26.0,32.0,60,0.00,,,-99.99,,2013-02-13 07:11:00,
2013-02-13 00:21:00,18.0,7.0,-100.00,WNW,301,29.0,34.0,61,0.00,,,-99.99,,2013-02-13 07:21:00,
2013-02-13 00:31:00,19.0,8.0,-100.00,WNW,302,31.0,40.0,61,0.00,,,-99.99,,2013-02-13 07:31:00,
2013-02-13 00:41:00,19.0,8.0,-100.00,WNW,302,29.0,35.0,61,0.00,,,-99.99,,2013-02-13 07:41:00,
2013-02-13 00:51:00,19.0,8.0,-100.00,WNW,299,24.0,32.0,62,0.00,,,-99.99,,2013-02-13 07:51:00,
2013-02-13 01:01:00,18.0,8.0,-100.00,NW,304,25.0,31.0,63,0.00,,,-99.99,,2013-02-13 08:01:00,
2013-02-13 01:11:00,18.0,8.0,-100.00,WNW,302,29.0,37.0,63,0.00,,,-99.99,,2013-02-13 08:11:00,
2013-02-13 01:21:00,18.0,8.0,-100.00,NW,304,32.0,40.0,64,0.00,,,-99.99,,2013-02-13 08:21:00,
2013-02-13 01:32:00,18.0,8.0,-100.00,WNW,299,29.0,35.0,64,0.00,,,-99.99,,2013-02-13 08:32:00,
2013-02-13 01:43:00,18.0,8.0,-100.00,WNW,299,21.0,24.0,65,0.00,,,-99.99,,2013-02-13 08:43:00,
2013-02-13 01:52:00,18.0,8.0,-100.00,WNW,301,17.0,21.0,65,0.00,,,-99.99,,2013-02-13 08:52:00,
2013-02-13 02:01:00,18.0,8.0,-100.00,NW,305,20.0,23.0,66,0.00,,,-99.99,,2013-02-13 09:01:00,
2013-02-13 02:11:00,18.0,8.0,-100.00,NW,309,14.0,18.0,65,0.00,,,-99.99,,2013-02-13 09:11:00,
2013-02-13 02:21:00,18.0,8.0,-100.00,WNW,294,10.0,16.0,66,0.00,,,-99.99,,2013-02-13 09:21:00,
2013-02-13 02:31:00,18.0,9.0,-100.00,WNW,301,28.0,39.0,65,0.00,,,-99.99,,2013-02-13 09:31:00,
2013-02-13 02:41:00,19.0,9.0,-100.00,WNW,298,32.0,39.0,64,0.00,,,-99.99,,2013-02-13 09:41:00,
2013-02-13 02:51:00,19.0,9.0,-100.00,WNW,301,29.0,34.0,65,0.00,,,-99.99,,2013-02-13 09:51:00,
2013-02-13 03:01:00,18.0,9.0,-100.00,WNW,301,30.0,39.0,66,0.00,,,-99.99,,2013-02-13 10:01:00,
2013-02-13 03:11:00,18.0,9.0,-100.00,WNW,302,25.0,29.0,66,0.00,,,-99.99,,2013-02-13 10:11:00,
2013-02-13 03:21:00,19.0,9.0,-100.00,WNW,299,27.0,32.0,65,0.00,,,-99.99,,2013-02-13 10:21:00,
2013-02-13 03:32:00,19.0,9.0,-100.00,WNW,301,31.0,37.0,64,0.00,,,-99.99,,2013-02-13 10:32:00,
2013-02-13 03:41:00,20.0,9.0,-100.00,WNW,301,32.0,41.0,64,0.00,,,-99.99,,2013-02-13 10:41:00,
2013-02-13 03:51:00,20.0,9.0,-100.00,WNW,298,34.0,41.0,64,0.00,,,-99.99,,2013-02-13 10:51:00,
2013-02-13 04:01:00,20.0,10.0,-100.00,WNW,301,34.0,47.0,64,0.00,,,-99.99,,2013-02-13 11:01:00,
2013-02-13 04:11:00,20.0,10.0,-100.00,WNW,301,36.0,44.0,65,0.00,,,-99.99,,2013-02-13 11:11:00,
2013-02-13 04:22:00,20.0,10.0,-100.00,NW,304,42.0,49.0,64,0.00,,,-99.99,,2013-02-13 11:22:00,
2013-02-13 04:32:00,20.0,9.0,-100.00,NW,304,42.0,50.0,64,0.00,,,-99.99,,2013-02-13 11:32:00,
2013-02-13 04:42:00,20.0,10.0,-100.00,NW,308,42.0,50.0,64,0.00,,,-99.99,,2013-02-13 11:42:00,
2013-02-13 04:52:00,20.0,10.0,-100.00,NW,308,44.0,51.0,64,0.00,,,-99.99,,2013-02-13 11:52:00,
2013-02-13 05:02:00,20.0,10.0,-100.00,NW,306,42.0,47.0,64,0.00,,,-99.99,,2013-02-13 12:02:00,
2013-02-13 05:11:00,20.0,10.0,-100.00,NW,305,41.0,49.0,64,0.00,,,-99.99,,2013-02-13 12:11:00,
2013-02-13 05:21:00,20.0,10.0,-100.00,NW,306,40.0,45.0,64,0.00,,,-99.99,,2013-02-13 12:21:00,
2013-02-13 05:32:00,20.0,10.0,-100.00,NW,305,39.0,46.0,64,0.00,,,-99.99,,2013-02-13 12:32:00,
2013-02-13 08:11:00,32.0,32.0,-100.00,North,0,0.0,0.0,0,0.00,,,-99.99,,2013-02-13 15:11:00,
2013-02-13 08:21:00,22.0,10.0,-100.00,NW,311,44.0,55.0,59,0.00,,,-99.99,,2013-02-13 15:21:00,
2013-02-13 08:32:00,22.0,11.0,-100.00,NW,309,49.0,55.0,60,0.00,,,-99.99,,2013-02-13 15:32:00,
2013-02-13 08:42:00,22.0,11.0,-100.00,NW,311,43.0,54.0,60,0.00,,,-99.99,,2013-02-13 15:42:00,
2013-02-13 08:51:00,22.0,11.0,-100.00,NW,308,38.0,43.0,61,0.00,,,-99.99,,2013-02-13 15:51:00,
2013-02-13 09:01:00,23.0,11.0,-100.00,NW,305,34.0,40.0,60,0.00,,,-99.99,,2013-02-13 16:01:00,
2013-02-13 09:11:00,23.0,11.0,-100.00,WNW,302,38.0,47.0,59,0.00,,,-99.99,,2013-02-13 16:11:00,
2013-02-13 09:21:00,24.0,11.0,-100.00,WNW,302,38.0,46.0,59,0.00,,,-99.99,,2013-02-13 16:21:00,
2013-02-13 09:31:00,24.0,11.0,-100.00,NW,308,39.0,47.0,59,0.00,,,-99.99,,2013-02-13 16:31:00,
2013-02-13 09:42:00,24.0,12.0,-100.00,WNW,302,39.0,49.0,60,0.00,,,-99.99,,2013-02-13 16:42:00,
2013-02-13 09:51:00,24.0,13.0,-100.00,NW,305,38.0,45.0,60,0.00,,,-99.99,,2013-02-13 16:51:00,
2013-02-13 10:01:00,25.0,13.0,-100.00,NW,305,39.0,51.0,60,0.00,,,-99.99,,2013-02-13 17:01:00,
2013-02-13 10:11:00,25.0,13.0,-100.00,NW,304,44.0,50.0,59,0.00,,,-99.99,,2013-02-13 17:11:00,
2013-02-13 10:21:00,25.0,13.0,-100.00,NW,305,42.0,54.0,59,0.00,,,-99.99,,2013-02-13 17:21:00,
2013-02-13 10:31:00,26.0,13.0,-100.00,WNW,302,37.0,46.0,58,0.00,,,-99.99,,2013-02-13 17:31:00,
2013-02-13 10:41:00,27.0,13.0,-100.00,WNW,299,40.0,50.0,57,0.00,,,-99.99,,2013-02-13 17:41:00,
2013-02-13 10:52:00,28.0,14.0,-100.00,NW,305,40.0,46.0,55,0.00,,,-99.99,,2013-02-13 17:52:00,
2013-02-13 11:01:00,28.0,14.0,-100.00,NW,306,42.0,49.0,57,0.00,,,-99.99,,2013-02-13 18:01:00,
2013-02-13 11:11:00,29.0,14.0,-100.00,NW,309,39.0,46.0,53,0.00,,,-99.99,,2013-02-13 18:11:00,
2013-02-13 11:22:00,29.0,14.0,-100.00,NW,308,38.0,46.0,54,0.00,,,-99.99,,2013-02-13 18:22:00,
2013-02-13 11:41:00,29.0,14.0,-100.00,NW,309,40.0,49.0,54,0.00,,,-99.99,,2013-02-13 18:41:00,
2013-02-13 11:52:00,29.0,15.0,-100.00,NW,308,35.0,41.0,53,0.00,,,-99.99,,2013-02-13 18:52:00,
2013-02-13 12:01:00,30.0,15.0,-100.00,NW,309,32.0,40.0,53,0.00,,,-99.99,,2013-02-13 19:01:00,
2013-02-13 12:11:00,30.0,15.0,-100.00,WNW,299,34.0,42.0,54,0.00,,,-99.99,,2013-02-13 19:11:00,
2013-02-13 12:21:00,31.0,15.0,-100.00,NW,305,34.0,40.0,53,0.00,,,-99.99,,2013-02-13 19:21:00,
2013-02-13 12:31:00,31.0,15.0,-100.00,NW,312,40.0,45.0,51,0.00,,,-99.99,,2013-02-13 19:31:00,
2013-02-13 12:41:00,31.0,15.0,-100.00,NW,305,35.0,41.0,50,0.00,,,-99.99,,2013-02-13 19:41:00,
2013-02-13 12:51:00,32.0,15.0,-100.00,NW,315,32.0,41.0,49,0.00,,,-99.99,,2013-02-13 19:51:00,
2013-02-13 13:02:00,33.0,15.0,-100.00,NW,311,29.0,39.0,47,0.00,,,-99.99,,2013-02-13 20:02:00,
2013-02-13 13:11:00,31.0,15.0,-100.00,NW,312,35.0,40.0,50,0.00,,,-99.99,,2013-02-13 20:11:00,
2013-02-13 13:21:00,32.0,15.0,-100.00,NW,312,33.0,42.0,49,0.00,,,-99.99,,2013-02-13 20:21:00,
2013-02-13 13:31:00,32.0,15.0,-100.00,NW,308,35.0,45.0,49,0.00,,,-99.99,,2013-02-13 20:31:00,
2013-02-13 13:41:00,32.0,15.0,-100.00,NW,312,37.0,44.0,49,0.00,,,-99.99,,2013-02-13 20:41:00,
2013-02-13 13:52:00,31.0,15.0,-100.00,NW,309,37.0,42.0,49,0.00,,,-99.99,,2013-02-13 20:52:00,
2013-02-13 14:01:00,31.0,14.0,-100.00,NW,311,37.0,49.0,48,0.00,,,-99.99,,2013-02-13 21:01:00,
2013-02-13 14:11:00,31.0,14.0,-100.00,NW,309,37.0,47.0,49,0.00,,,-99.99,,2013-02-13 21:11:00,
2013-02-13 14:21:00,32.0,15.0,-100.00,WNW,301,32.0,40.0,49,0.00,,,-99.99,,2013-02-13 21:21:00,
2013-02-13 14:31:00,32.0,14.0,-100.00,WNW,298,34.0,41.0,48,0.00,,,-99.99,,2013-02-13 21:31:00,
2013-02-13 14:42:00,32.0,15.0,-100.00,NW,304,32.0,39.0,49,0.00,,,-99.99,,2013-02-13 21:42:00,
2013-02-13 14:52:00,31.0,14.0,-100.00,NW,308,35.0,40.0,49,0.00,,,-99.99,,2013-02-13 21:52:00,
2013-02-13 15:02:00,32.0,14.0,-100.00,NW,304,32.0,37.0,48,0.00,,,-99.99,,2013-02-13 22:02:00,
2013-02-13 15:11:00,31.0,14.0,-100.00,NW,304,33.0,37.0,49,0.00,,,-99.99,,2013-02-13 22:11:00,
2013-02-13 15:21:00,32.0,14.0,-100.00,NW,308,30.0,35.0,48,0.00,,,-99.99,,2013-02-13 22:21:00,
2013-02-13 15:31:00,31.0,14.0,-100.00,NW,306,31.0,36.0,48,0.00,,,-99.99,,2013-02-13 22:31:00,
2013-02-13 15:42:00,31.0,14.0,-100.00,NW,306,31.0,37.0,49,0.00,,,-99.99,,2013-02-13 22:42:00,
2013-02-13 15:51:00,31.0,14.0,-100.00,NW,308,31.0,39.0,49,0.00,,,-99.99,,2013-02-13 22:51:00,
2013-02-13 16:01:00,31.0,14.0,-100.00,NW,304,29.0,35.0,49,0.00,,,-99.99,,2013-02-13 23:01:00,
2013-02-13 16:11:00,30.0,14.0,-100.00,NW,306,31.0,37.0,50,0.00,,,-99.99,,2013-02-13 23:11:00,
2013-02-13 16:21:00,31.0,15.0,-100.00,NW,304,25.0,35.0,51,0.00,,,-99.99,,2013-02-13 23:21:00,
2013-02-13 16:32:00,31.0,15.0,-100.00,NW,305,22.0,28.0,51,0.00,,,-99.99,,2013-02-13 23:32:00,
2013-02-13 16:41:00,29.0,15.0,-100.00,NW,313,29.0,35.0,54,0.00,,,-99.99,,2013-02-13 23:41:00,
2013-02-13 16:52:00,29.0,15.0,-100.00,NW,308,30.0,36.0,54,0.00,,,-99.99,,2013-02-13 23:52:00,
2013-02-13 17:02:00,29.0,15.0,-100.00,NW,306,27.0,32.0,55,0.00,,,-99.99,,2013-02-14 00:02:00,
2013-02-13 17:11:00,28.0,15.0,-100.00,NW,315,25.0,31.0,57,0.00,,,-99.99,,2013-02-14 00:11:00,
2013-02-13 17:21:00,28.0,14.0,-100.00,NW,315,25.0,30.0,56,0.00,,,-99.99,,2013-02-14 00:21:00,
2013-02-13 17:32:00,27.0,14.0,-100.00,NW,318,21.0,26.0,58,0.00,,,-99.99,,2013-02-14 00:32:00,
2013-02-13 17:42:00,27.0,15.0,-100.00,NW,323,22.0,26.0,60,0.00,,,-99.99,,2013-02-14 00:42:00,
2013-02-13 18:31:00,26.0,15.0,-100.00,NW,319,21.0,26.0,63,0.00,,,-99.99,,2013-02-14 01:31:00,
2013-02-13 18:41:00,25.0,15.0,-100.00,NNW,329,17.0,23.0,64,0.00,,,-99.99,,2013-02-14 01:41:00,
2013-02-13 18:51:00,25.0,15.0,-100.00,NNW,329,17.0,22.0,66,0.00,,,-99.99,,2013-02-14 01:51:00,
2013-02-13 19:01:00,24.0,14.0,-100.00,NNW,343,8.0,12.0,66,0.00,,,-99.99,,2013-02-14 02:01:00,
2013-02-13 19:11:00,24.0,15.0,-100.00,NNW,339,4.0,7.0,68,0.00,,,-99.99,,2013-02-14 02:11:00,
2013-02-13 19:21:00,24.0,15.0,-100.00,NW,318,9.0,14.0,67,0.00,,,-99.99,,2013-02-14 02:21:00,
2013-02-13 19:31:00,25.0,15.0,-100.00,NNE,20,6.0,11.0,65,0.00,,,-99.99,,2013-02-14 02:31:00,
2013-02-13 19:41:00,25.0,15.0,-100.00,NNE,20,6.0,11.0,65,0.00,,,-99.99,,2013-02-14 02:41:00,
2013-02-13 19:51:00,25.0,15.0,-100.00,NNE,20,6.0,11.0,65,0.00,,,-99.99,,2013-02-14 02:51:00,
2013-02-13 20:02:00,24.0,15.0,-100.00,North,349,8.0,12.0,69,0.00,,,-99.99,,2013-02-14 03:02:00,
2013-02-13 20:11:00,24.0,15.0,-100.00,NNW,333,10.0,14.0,68,0.00,,,-99.99,,2013-02-14 03:11:00,
2013-02-13 20:21:00,23.0,15.0,-100.00,NNW,336,10.0,12.0,69,0.00,,,-99.99,,2013-02-14 03:21:00,
2013-02-13 20:31:00,24.0,15.0,-100.00,NNW,337,13.0,17.0,68,0.00,,,-99.99,,2013-02-14 03:31:00,
2013-02-13 20:42:00,24.0,14.0,-100.00,NW,313,14.0,16.0,66,0.00,,,-99.99,,2013-02-14 03:42:00,
2013-02-13 20:51:00,23.0,15.0,-100.00,NW,316,17.0,22.0,71,0.00,,,-99.99,,2013-02-14 03:51:00,
2013-02-13 21:01:00,24.0,16.0,-100.00,NW,315,17.0,19.0,70,0.00,,,-99.99,,2013-02-14 04:01:00,
2013-02-13 21:11:00,24.0,16.0,-100.00,NW,315,21.0,27.0,70,0.00,,,-99.99,,2013-02-14 04:11:00,
2013-02-13 21:21:00,24.0,16.0,-100.00,NW,319,21.0,24.0,69,0.00,,,-99.99,,2013-02-14 04:21:00,
2013-02-13 21:31:00,24.0,16.0,-100.00,NW,319,22.0,25.0,70,0.00,,,-99.99,,2013-02-14 04:31:00,
2013-02-13 21:41:00,24.0,16.0,-100.00,NW,320,22.0,27.0,70,0.00,,,-99.99,,2013-02-14 04:41:00,
2013-02-13 21:51:00,24.0,16.0,-100.00,NW,319,19.0,21.0,69,0.00,,,-99.99,,2013-02-14 04:51:00,
2013-02-13 22:02:00,25.0,16.0,-100.00,NW,318,22.0,26.0,68,0.00,,,-99.99,,2013-02-14 05:02:00,
2013-02-13 22:11:00,25.0,16.0,-100.00,NW,316,22.0,27.0,69,0.00,,,-99.99,,2013-02-14 05:11:00,
2013-02-13 22:21:00,25.0,16.0,-100.00,NW,315,26.0,32.0,67,0.00,,,-99.99,,2013-02-14 05:21:00,
2013-02-13 22:31:00,26.0,16.0,-100.00,NW,316,27.0,32.0,66,0.00,,,-99.99,,2013-02-14 05:31:00,
2013-02-13 22:41:00,25.0,16.0,-100.00,NW,315,25.0,29.0,66,0.00,,,-99.99,,2013-02-14 05:41:00,
2013-02-13 22:52:00,25.0,16.0,-100.00,NW,316,23.0,29.0,67,0.00,,,-99.99,,2013-02-14 05:52:00,
2013-02-13 23:02:00,25.0,16.0,-100.00,NW,318,27.0,33.0,68,0.00,,,-99.99,,2013-02-14 06:02:00,
2013-02-13 23:11:00,25.0,16.0,-100.00,NW,315,26.0,30.0,67,0.00,,,-99.99,,2013-02-14 06:11:00,
2013-02-13 23:21:00,25.0,16.0,-100.00,NW,312,27.0,32.0,69,0.00,,,-99.99,,2013-02-14 06:21:00,
2013-02-13 23:31:00,25.0,17.0,-100.00,NW,316,29.0,34.0,71,0.00,,,-99.99,,2013-02-14 06:31:00,
2013-02-13 23:41:00,25.0,17.0,-100.00,NW,315,24.0,29.0,72,0.00,,,-99.99,,2013-02-14 06:41:00,
2013-02-13 23:51:00,25.0,17.0,-100.00,NW,313,29.0,34.0,71,0.00,,,-99.99,,2013-02-14 06:51:00,